Studio City, California
Current Conditions -  °F | °C
As of 3:53 PM on Saturday 20 Dec 2014 (Local Time) from KBUR Reporting Station
Clear Clear  
Wind Chill: 61°   Ceiling: Unl
Heat Index: 61°   Visibility: 10mi
Dew Point: 49°   Wind: 6mph
Humidity: 64%   Direction: 110°ESE
Pressure: 30.11"   Gusts: NA
Location:  34.15°N, 118.4°W
Report Text: KBUR 202353Z 11005KT 10SM CLR 16/09 A3011 RMK AO2 SLP188 T01610094 10172 20133 56009
Loading
Personal Weather Stations






























Interactive Weather Map New forecast layout! Learn more

10-Day Weather Forecast

Advertisements
Track Severe Weather on mobile